Terminal Aerodrome Forecast
Issued by NWS

Home | Current Version | Previous Version | Text Only | Print | Product List | Glossary On
Versions: 1 2 3 4 5 6 7 8 9 10 11 12 13 14
000
FTUS46 KSEW 160500
TAFOLM
TAF
KOLM 160520Z 1606/1706 22008KT P6SM -RA BKN030 OVC045
     FM160900 22008KT P6SM -RA OVC030
     FM161600 20012KT 4SM -RA BR OVC018
     FM170200 20010KT 6SM -RA BR OVC028=

USA.gov is the U.S. government's official web portal to all federal, state and local government web resources and services.